createdAt,value
2019-03-28T00:01:16.096Z,80.37
2019-03-28T00:03:50.225Z,79.58
2019-03-28T00:06:23.295Z,79.49
2019-03-28T00:08:55.465Z,79.32
2019-03-28T00:11:30.268Z,79.30
2019-03-28T00:14:02.261Z,79.09
2019-03-28T00:16:35.729Z,79.18
2019-03-28T00:19:09.280Z,79.51
2019-03-28T00:21:41.682Z,79.28
2019-03-28T00:24:33.228Z,78.91
2019-03-28T00:27:05.703Z,80.74
2019-03-28T00:29:39.274Z,80.66
2019-03-28T00:32:11.565Z,79.38
2019-03-28T00:34:44.214Z,80.50
2019-03-28T00:37:19.036Z,80.84
2019-03-28T00:39:55.137Z,81.34
2019-03-28T00:42:29.886Z,80.82
2019-03-28T00:45:02.490Z,80.20
2019-03-28T00:47:36.231Z,79.97
2019-03-28T00:50:09.628Z,79.96
2019-03-28T00:52:44.867Z,80.77
2019-03-28T00:55:17.364Z,81.49
2019-03-28T00:57:50.409Z,81.18
2019-03-28T01:00:22.929Z,80.73
2019-03-28T01:02:58.132Z,80.27
2019-03-28T01:05:32.501Z,80.48
2019-03-28T01:08:06.079Z,80.12
2019-03-28T01:10:38.553Z,80.26
2019-03-28T01:13:12.545Z,80.92
2019-03-28T01:15:44.420Z,80.43
2019-03-28T01:18:17.969Z,80.84
2019-03-28T01:20:51.223Z,79.61
2019-03-28T01:23:23.152Z,79.52
2019-03-28T01:25:55.743Z,79.48
2019-03-28T01:28:29.717Z,79.12
2019-03-28T01:31:02.726Z,78.76
2019-03-28T01:33:35.676Z,78.11
2019-03-28T01:36:08.657Z,78.91
2019-03-28T01:38:41.721Z,78.81
2019-03-28T01:41:14.606Z,79.19
2019-03-28T01:43:48.014Z,79.05
2019-03-28T01:46:22.694Z,78.92
2019-03-28T01:48:56.677Z,79.22
2019-03-28T01:51:29.749Z,79.07
2019-03-28T01:54:03.347Z,79.11
2019-03-28T01:56:36.786Z,78.90
2019-03-28T01:59:09.709Z,77.53
2019-03-28T02:01:43.722Z,77.63
2019-03-28T02:04:18.076Z,77.31
2019-03-28T02:06:51.020Z,77.94
2019-03-28T02:09:23.325Z,78.18
2019-03-28T02:11:56.745Z,77.91
2019-03-28T02:14:30.060Z,77.56
2019-03-28T02:17:03.816Z,76.79
2019-03-28T02:19:36.059Z,76.71
2019-03-28T02:22:09.975Z,78.83
2019-03-28T02:24:41.863Z,79.81
2019-03-28T02:27:23.984Z,80.03
2019-03-28T02:29:50.992Z,79.40
2019-03-28T02:32:23.816Z,79.59
2019-03-28T02:34:56.883Z,80.08
2019-03-28T02:37:30.547Z,80.12
2019-03-28T02:40:02.932Z,80.80
2019-03-28T02:42:36.987Z,80.87
2019-03-28T02:45:12.946Z,80.63
2019-03-28T02:47:46.315Z,80.27
2019-03-28T02:50:27.469Z,80.66
2019-03-28T02:53:00.810Z,80.31
2019-03-28T02:59:00.610Z,79.82
2019-03-28T03:01:34.845Z,79.25
2019-03-28T03:04:09.254Z,79.41
2019-03-28T03:06:44.595Z,79.25
2019-03-28T03:09:17.756Z,79.32
2019-03-28T03:11:51.123Z,79.52
2019-03-28T03:14:24.090Z,79.65
2019-03-28T03:16:59.745Z,79.67
2019-03-28T03:19:33.726Z,79.45
2019-03-28T03:22:06.109Z,79.78
2019-03-28T03:24:39.489Z,79.49
2019-03-28T03:27:14.231Z,80.20
2019-03-28T03:29:48.265Z,79.61
2019-03-28T03:32:21.097Z,79.19
2019-03-28T03:34:54.218Z,79.21
2019-03-28T03:37:29.869Z,78.37
2019-03-28T03:40:05.778Z,78.68
2019-03-28T03:42:38.426Z,79.01
2019-03-28T03:45:14.471Z,79.82
2019-03-28T03:47:48.117Z,79.49
2019-03-28T03:50:29.451Z,79.43
2019-03-28T03:53:03.203Z,79.98
2019-03-28T03:55:36.024Z,79.58
2019-03-28T03:58:15.980Z,80.10
2019-03-28T04:00:46.810Z,80.17
2019-03-28T04:03:21.979Z,80.16
2019-03-28T04:05:56.244Z,79.07
2019-03-28T04:08:30.912Z,78.86
2019-03-28T04:11:11.297Z,78.76
2019-03-28T04:13:44.276Z,79.25
2019-03-28T04:16:19.399Z,79.60
2019-03-28T04:18:52.285Z,79.17
2019-03-28T04:21:24.837Z,79.17
2019-03-28T04:24:00.850Z,80.44
2019-03-28T04:26:35.321Z,79.89
2019-03-28T04:29:09.270Z,80.00
2019-03-28T04:31:43.500Z,79.60
2019-03-28T04:34:17.698Z,79.39
2019-03-28T04:36:49.712Z,78.78
2019-03-28T04:39:23.369Z,78.57
2019-03-28T04:41:55.405Z,78.30
2019-03-28T04:44:29.392Z,78.56
2019-03-28T04:47:02.416Z,78.29
2019-03-28T04:49:35.611Z,78.17
2019-03-28T04:52:09.139Z,78.43
2019-03-28T04:54:41.665Z,77.66
2019-03-28T04:57:15.082Z,77.50
2019-03-28T04:59:47.536Z,77.01
2019-03-28T05:02:22.545Z,76.87
2019-03-28T05:04:58.096Z,78.25
2019-03-28T05:07:34.195Z,78.33
2019-03-28T05:10:08.177Z,78.84
2019-03-28T05:12:43.341Z,78.35
2019-03-28T05:15:20.142Z,77.91
2019-03-28T05:17:55.255Z,77.63
2019-03-28T05:20:29.762Z,77.21
2019-03-28T05:23:02.886Z,76.81
2019-03-28T05:25:35.762Z,77.07
2019-03-28T05:28:09.030Z,77.80
2019-03-28T05:30:41.770Z,77.91
2019-03-28T05:33:15.770Z,78.00
2019-03-28T05:35:47.653Z,77.77
2019-03-28T05:38:19.653Z,78.44
2019-03-28T05:40:53.956Z,77.90
2019-03-28T05:43:27.062Z,77.93
2019-03-28T05:46:00.842Z,76.82
2019-03-28T05:48:33.629Z,77.79
2019-03-28T05:51:07.665Z,76.71
2019-03-28T05:53:44.002Z,77.17
2019-03-28T05:56:18.189Z,76.23
2019-03-28T05:58:50.910Z,76.27
2019-03-28T06:01:23.408Z,77.72
2019-03-28T06:03:58.675Z,77.88
2019-03-28T06:06:33.001Z,76.73
2019-03-28T06:09:08.318Z,75.84
2019-03-28T06:11:41.948Z,75.25
2019-03-28T06:14:14.964Z,74.45
2019-03-28T06:16:48.870Z,74.04
2019-03-28T06:19:20.821Z,74.03
2019-03-28T06:21:53.826Z,75.80
2019-03-28T06:24:27.269Z,76.67
2019-03-28T06:27:01.908Z,78.76
2019-03-28T06:29:36.336Z,78.23
2019-03-28T06:32:08.880Z,78.24
2019-03-28T06:34:42.050Z,77.87
2019-03-28T06:37:15.039Z,77.19
2019-03-28T06:39:47.838Z,76.90
2019-03-28T06:42:20.895Z,76.70
2019-03-28T06:44:53.947Z,75.22
2019-03-28T06:47:28.594Z,75.26
2019-03-28T06:50:02.455Z,73.67
2019-03-28T06:52:37.774Z,76.44
2019-03-28T06:55:10.327Z,78.10
2019-03-28T06:57:46.938Z,77.83
2019-03-28T07:00:20.195Z,77.64
2019-03-28T07:02:52.716Z,77.96
2019-03-28T07:05:27.000Z,77.63
2019-03-28T07:08:02.770Z,77.27
2019-03-28T07:10:36.824Z,76.93
2019-03-28T07:13:12.608Z,76.79
2019-03-28T07:15:46.638Z,76.08
2019-03-28T07:18:20.336Z,75.19
2019-03-28T07:20:54.119Z,73.62
2019-03-28T07:23:27.108Z,73.44
2019-03-28T07:26:02.728Z,72.74
2019-03-28T07:28:37.845Z,72.98
2019-03-28T07:31:13.156Z,72.91
2019-03-28T07:33:46.478Z,73.71
2019-03-28T07:36:18.926Z,73.65
2019-03-28T07:38:51.987Z,73.68
2019-03-28T07:41:25.414Z,73.25
2019-03-28T07:43:58.997Z,73.63
2019-03-28T07:46:34.218Z,73.07
2019-03-28T07:49:07.282Z,71.31
2019-03-28T07:51:41.171Z,71.07
2019-03-28T07:54:13.408Z,71.10
2019-03-28T07:56:47.198Z,71.18
2019-03-28T07:59:20.325Z,72.16
2019-03-28T08:01:53.141Z,71.92
2019-03-28T08:04:27.250Z,69.98
2019-03-28T08:07:01.638Z,69.75
2019-03-28T08:09:36.794Z,70.15
2019-03-28T08:12:21.846Z,69.51
2019-03-28T08:14:45.597Z,70.08
2019-03-28T08:17:22.369Z,69.92
2019-03-28T08:19:54.418Z,69.16
2019-03-28T08:22:29.638Z,67.96
2019-03-28T08:25:01.562Z,67.63
2019-03-28T08:27:35.275Z,68.16
2019-03-28T08:30:18.184Z,68.59
2019-03-28T08:32:45.783Z,67.09
2019-03-28T08:35:18.366Z,67.41
2019-03-28T08:37:51.481Z,67.40
2019-03-28T08:40:39.633Z,66.02
2019-03-28T08:43:12.361Z,65.91
2019-03-28T08:45:45.624Z,65.23
2019-03-28T08:48:19.012Z,65.56
2019-03-28T08:50:53.279Z,65.02
2019-03-28T08:53:27.447Z,63.32
2019-03-28T08:55:59.444Z,64.07
2019-03-28T08:58:38.026Z,62.93
2019-03-28T09:04:01.348Z,64.25
2019-03-28T09:06:34.983Z,62.32
2019-03-28T09:09:11.407Z,62.05
2019-03-28T09:11:46.535Z,61.07
2019-03-28T09:14:20.420Z,60.34
2019-03-28T09:16:55.472Z,60.96
2019-03-28T09:22:20.673Z,59.08
2019-03-28T09:24:54.772Z,58.04
2019-03-28T09:27:26.516Z,59.42
2019-03-28T09:30:00.654Z,57.79
2019-03-28T09:32:34.076Z,56.80
2019-03-28T09:35:08.694Z,57.24
2019-03-28T09:37:44.743Z,57.22
2019-03-28T09:40:18.482Z,57.80
2019-03-28T09:42:52.049Z,57.32
2019-03-28T09:45:23.988Z,57.10
2019-03-28T09:47:59.036Z,56.10
2019-03-28T09:50:33.804Z,57.63
2019-03-28T09:53:07.526Z,55.80
2019-03-28T09:55:43.062Z,56.86
2019-03-28T09:58:14.770Z,57.56
2019-03-28T10:01:01.615Z,57.43
2019-03-28T10:03:22.160Z,57.45
2019-03-28T10:05:55.890Z,57.80
2019-03-28T10:08:28.146Z,57.68
2019-03-28T10:11:02.943Z,57.10
2019-03-28T10:13:35.890Z,58.99
2019-03-28T10:16:09.977Z,57.79
2019-03-28T10:18:44.547Z,57.75
2019-03-28T10:21:18.878Z,58.32
2019-03-28T10:23:50.882Z,56.41
2019-03-28T10:26:23.783Z,56.87
2019-03-28T10:28:56.866Z,55.26
2019-03-28T10:31:29.999Z,56.31
2019-03-28T10:34:03.551Z,57.61
2019-03-28T10:36:38.642Z,58.25
2019-03-28T10:39:11.834Z,56.14
2019-03-28T10:41:44.087Z,55.24
2019-03-28T10:44:19.824Z,56.12
2019-03-28T10:46:54.147Z,56.60
2019-03-28T10:49:28.632Z,56.08
2019-03-28T10:52:03.965Z,57.04
2019-03-28T10:54:35.223Z,56.78
2019-03-28T10:57:13.485Z,57.43
2019-03-28T10:59:42.572Z,58.45
2019-03-28T11:02:17.237Z,58.43
2019-03-28T11:04:51.264Z,58.12
2019-03-28T11:07:23.045Z,57.78
2019-03-28T11:09:57.810Z,58.13
2019-03-28T11:12:30.362Z,58.67
2019-03-28T11:15:04.909Z,58.91
2019-03-28T11:17:39.284Z,59.08
2019-03-28T11:20:11.660Z,57.76
2019-03-28T11:22:47.322Z,57.63
2019-03-28T11:25:21.453Z,58.14
2019-03-28T11:27:55.976Z,57.89
2019-03-28T11:30:31.284Z,58.36
2019-03-28T11:33:06.529Z,57.71
2019-03-28T11:35:41.012Z,58.95
2019-03-28T11:38:15.022Z,58.22
2019-03-28T11:40:48.304Z,58.39
2019-03-28T11:43:22.590Z,58.93
2019-03-28T11:45:58.256Z,59.52
2019-03-28T11:48:30.411Z,58.30
2019-03-28T11:51:07.901Z,57.76
2019-03-28T11:53:42.291Z,58.14
2019-03-28T11:56:17.200Z,57.82
2019-03-28T11:58:49.339Z,56.97
2019-03-28T12:01:22.835Z,56.28
2019-03-28T12:03:57.921Z,56.86
2019-03-28T12:06:30.694Z,57.14
2019-03-28T12:09:04.585Z,56.37
2019-03-28T12:11:37.897Z,55.16
2019-03-28T12:14:12.308Z,55.04
2019-03-28T12:16:45.719Z,54.65
2019-03-28T12:19:22.130Z,55.44
2019-03-28T12:21:55.402Z,57.23
2019-03-28T12:24:27.344Z,56.63
2019-03-28T12:27:00.320Z,57.95
2019-03-28T12:29:35.946Z,57.37
2019-03-28T12:32:14.304Z,57.88
2019-03-28T12:34:43.763Z,58.33
2019-03-28T12:37:17.441Z,58.61
2019-03-28T12:39:52.011Z,58.49
2019-03-28T12:42:24.266Z,58.68
2019-03-28T12:44:57.620Z,57.74
2019-03-28T12:47:42.257Z,58.73
2019-03-28T12:50:08.643Z,58.23
2019-03-28T12:52:46.476Z,58.19
2019-03-28T12:55:20.456Z,58.73
2019-03-28T12:57:52.484Z,58.68
2019-03-28T13:00:35.963Z,58.81
2019-03-28T13:03:14.190Z,59.57
2019-03-28T13:05:49.825Z,59.12
2019-03-28T13:08:21.780Z,59.20
2019-03-28T13:10:54.788Z,59.38
2019-03-28T13:13:27.683Z,59.35
2019-03-28T13:16:02.123Z,59.79
2019-03-28T13:18:36.764Z,59.43
2019-03-28T13:21:13.891Z,59.48
2019-03-28T13:23:45.810Z,60.04
2019-03-28T13:26:18.567Z,59.56
2019-03-28T13:28:51.762Z,60.69
2019-03-28T13:31:23.953Z,60.03
2019-03-28T13:33:58.746Z,60.53
2019-03-28T13:36:32.805Z,60.21
2019-03-28T13:39:08.188Z,60.37
2019-03-28T13:41:44.424Z,60.15
2019-03-28T13:44:19.598Z,59.75
2019-03-28T13:46:52.783Z,60.50
2019-03-28T13:49:24.592Z,59.21
2019-03-28T13:51:59.057Z,58.09
2019-03-28T13:54:31.110Z,57.91
2019-03-28T13:57:05.610Z,58.52
2019-03-28T13:59:39.727Z,57.60
2019-03-28T14:02:13.765Z,58.97
2019-03-28T14:04:47.843Z,59.03
2019-03-28T14:07:22.853Z,60.21
2019-03-28T14:09:55.407Z,61.02
2019-03-28T14:12:27.949Z,60.94
2019-03-28T14:15:00.982Z,60.20
2019-03-28T14:17:35.070Z,60.70
2019-03-28T14:20:08.509Z,60.67
2019-03-28T14:22:46.161Z,59.87
2019-03-28T14:25:19.790Z,59.63
2019-03-28T14:27:52.217Z,60.73
2019-03-28T14:30:24.322Z,60.65
2019-03-28T14:33:10.652Z,59.63
2019-03-28T14:35:33.998Z,59.05
2019-03-28T14:38:06.995Z,58.64
2019-03-28T14:40:39.226Z,59.07
2019-03-28T14:43:14.558Z,59.63
2019-03-28T14:45:48.966Z,58.50
2019-03-28T14:48:22.358Z,58.28
2019-03-28T14:50:57.144Z,58.20
2019-03-28T14:53:31.216Z,58.00
2019-03-28T14:56:05.368Z,57.25
2019-03-28T14:58:42.023Z,57.22
2019-03-28T15:01:16.571Z,57.50
2019-03-28T15:03:51.972Z,57.74
2019-03-28T15:06:24.719Z,57.83
2019-03-28T15:09:00.894Z,57.79
2019-03-28T15:11:33.839Z,57.87
2019-03-28T15:14:07.091Z,58.08
2019-03-28T15:16:40.251Z,58.56
2019-03-28T15:19:13.552Z,58.52
2019-03-28T15:21:46.240Z,58.65
2019-03-28T15:24:22.078Z,58.05
2019-03-28T15:26:56.101Z,58.33
2019-03-28T15:29:29.066Z,58.64
2019-03-28T15:32:03.321Z,59.77
2019-03-28T15:34:36.281Z,58.73
2019-03-28T15:37:11.896Z,58.91
2019-03-28T15:39:44.263Z,57.99
2019-03-28T15:42:16.222Z,58.66
2019-03-28T15:44:51.049Z,58.72
2019-03-28T15:47:24.574Z,59.09
2019-03-28T15:49:58.361Z,59.56
2019-03-28T15:52:31.742Z,59.21
2019-03-28T15:55:07.546Z,60.26
2019-03-28T15:57:44.326Z,61.10
2019-03-28T16:00:18.888Z,61.38
2019-03-28T16:02:52.817Z,61.23
2019-03-28T16:05:24.698Z,63.01
2019-03-28T16:07:59.318Z,63.30
2019-03-28T16:10:33.296Z,63.63
2019-03-28T16:13:06.308Z,64.61
2019-03-28T16:15:39.473Z,65.10
2019-03-28T16:18:13.682Z,65.67
2019-03-28T16:20:53.271Z,65.66
2019-03-28T16:23:23.457Z,65.79
2019-03-28T16:25:57.375Z,66.15
2019-03-28T16:28:30.499Z,66.57
2019-03-28T16:31:03.459Z,66.54
2019-03-28T16:33:36.594Z,66.23
2019-03-28T16:36:09.555Z,66.45
2019-03-28T16:38:44.223Z,66.89
2019-03-28T16:41:16.567Z,66.14
2019-03-28T16:43:49.498Z,66.47
2019-03-28T16:46:21.490Z,67.81
2019-03-28T16:48:54.817Z,67.53
2019-03-28T16:51:27.689Z,66.67
2019-03-28T16:54:00.023Z,67.33
2019-03-28T16:56:33.666Z,67.22
2019-03-28T16:59:06.517Z,67.73
2019-03-28T17:01:40.288Z,67.47
2019-03-28T17:04:20.768Z,67.52
2019-03-28T17:06:47.600Z,68.79
2019-03-28T17:09:24.142Z,68.57
2019-03-28T17:11:57.575Z,69.22
2019-03-28T17:14:31.055Z,70.46
2019-03-28T17:17:03.848Z,70.33
2019-03-28T17:19:36.800Z,71.34
2019-03-28T17:22:09.696Z,71.33
2019-03-28T17:24:43.945Z,71.29
2019-03-28T17:27:17.722Z,70.76
2019-03-28T17:29:50.721Z,70.68
2019-03-28T17:32:22.672Z,70.43
2019-03-28T17:34:55.126Z,70.73
2019-03-28T17:37:27.909Z,70.77
2019-03-28T17:40:00.718Z,71.18
2019-03-28T17:42:33.739Z,71.84
2019-03-28T17:45:07.076Z,71.39
2019-03-28T17:47:40.418Z,72.18
2019-03-28T17:50:13.122Z,72.37
2019-03-28T17:52:46.649Z,73.47
2019-03-28T17:55:19.976Z,74.37
2019-03-28T17:57:53.940Z,77.01
2019-03-28T18:00:28.368Z,75.97
2019-03-28T18:03:09.206Z,76.42
2019-03-28T18:05:36.903Z,76.25
2019-03-28T18:08:09.890Z,76.71
2019-03-28T18:10:44.448Z,76.57
2019-03-28T18:13:18.763Z,77.62
2019-03-28T18:15:51.893Z,78.49
2019-03-28T18:22:03.764Z,79.59
2019-03-28T18:24:33.971Z,79.30
2019-03-28T18:27:06.140Z,79.43
2019-03-28T18:29:40.139Z,78.99
2019-03-28T18:32:12.983Z,78.68
2019-03-28T18:34:46.159Z,78.01
2019-03-28T18:37:20.590Z,78.72
2019-03-28T18:39:54.951Z,79.12
2019-03-28T18:42:28.610Z,78.86
2019-03-28T18:45:02.872Z,78.43
2019-03-28T18:47:37.135Z,78.20
2019-03-28T18:50:10.835Z,79.69
2019-03-28T18:52:44.847Z,81.10
2019-03-28T18:55:20.659Z,80.97
2019-03-28T18:57:52.406Z,81.74
2019-03-28T19:00:26.209Z,81.72
2019-03-28T19:02:59.583Z,82.20
2019-03-28T19:05:35.919Z,82.20
2019-03-28T19:08:10.679Z,81.69
2019-03-28T19:10:44.393Z,81.39
2019-03-28T19:13:16.222Z,80.15
2019-03-28T19:15:49.951Z,80.86
2019-03-28T19:18:22.084Z,81.63
2019-03-28T19:20:55.115Z,81.83
2019-03-28T19:23:28.261Z,81.30
2019-03-28T19:26:01.259Z,81.38
2019-03-28T19:28:34.234Z,81.45
2019-03-28T19:31:08.551Z,81.83
2019-03-28T19:33:43.933Z,82.92
2019-03-28T19:36:20.562Z,83.50
2019-03-28T19:38:56.984Z,83.11
2019-03-28T19:41:33.876Z,82.36
2019-03-28T19:44:09.925Z,81.40
2019-03-28T19:46:45.053Z,80.30
2019-03-28T19:49:17.740Z,81.43
2019-03-28T19:51:50.383Z,80.74
2019-03-28T19:54:23.385Z,80.54
2019-03-28T19:56:57.568Z,80.07
2019-03-28T19:59:31.397Z,79.67
2019-03-28T20:02:05.739Z,79.19
2019-03-28T20:05:22.858Z,80.08
2019-03-28T20:07:57.459Z,81.18
2019-03-28T20:10:31.801Z,81.03
2019-03-28T20:13:05.381Z,80.53
2019-03-28T20:15:40.384Z,80.14
2019-03-28T20:18:13.820Z,80.51
2019-03-28T20:20:46.931Z,81.30
2019-03-28T20:23:19.605Z,81.49
2019-03-28T20:25:52.417Z,82.26
2019-03-28T20:28:26.942Z,82.98
2019-03-28T20:30:59.583Z,82.52
2019-03-28T20:33:31.514Z,82.96
2019-03-28T20:36:24.631Z,82.42
2019-03-28T20:38:39.563Z,82.26
2019-03-28T20:41:14.814Z,82.28
2019-03-28T20:43:49.602Z,81.62
2019-03-28T20:46:21.717Z,80.70
2019-03-28T20:48:55.447Z,81.30
2019-03-28T20:51:28.540Z,80.86
2019-03-28T20:54:03.777Z,81.05
2019-03-28T20:56:38.470Z,80.77
2019-03-28T20:59:12.650Z,80.51
2019-03-28T21:01:48.037Z,80.73
2019-03-28T21:04:31.055Z,81.95
2019-03-28T21:06:57.860Z,80.58
2019-03-28T21:09:33.323Z,80.77
2019-03-28T21:12:07.735Z,80.77
2019-03-28T21:14:41.705Z,80.94
2019-03-28T21:17:14.650Z,81.31
2019-03-28T21:19:47.805Z,81.08
2019-03-28T21:22:20.771Z,81.63
2019-03-28T21:24:56.202Z,81.59
2019-03-28T21:27:30.894Z,81.70
2019-03-28T21:30:04.084Z,81.82
2019-03-28T21:32:38.244Z,81.60
2019-03-28T21:35:14.497Z,81.49
2019-03-28T21:37:48.784Z,80.59
2019-03-28T21:40:21.786Z,81.55
2019-03-28T21:42:54.725Z,81.61
2019-03-28T21:45:27.905Z,81.19
2019-03-28T21:48:01.877Z,80.80
2019-03-28T21:50:34.853Z,80.55
2019-03-28T21:53:11.819Z,80.53
2019-03-28T21:55:55.184Z,81.45
2019-03-28T21:58:23.086Z,83.38
2019-03-28T22:00:56.023Z,82.59
2019-03-28T22:03:28.157Z,82.49
2019-03-28T22:06:02.567Z,82.17
2019-03-28T22:08:36.892Z,81.83
2019-03-28T22:11:09.862Z,82.24
2019-03-28T22:13:42.856Z,82.25
2019-03-28T22:16:17.252Z,81.96
2019-03-28T22:18:49.027Z,82.05
2019-03-28T22:21:23.637Z,81.93
2019-03-28T22:23:56.240Z,82.17
2019-03-28T22:26:28.009Z,82.57
2019-03-28T22:29:02.147Z,82.84
2019-03-28T22:31:35.488Z,82.77
2019-03-28T22:34:10.172Z,82.42
2019-03-28T22:36:57.131Z,82.10
2019-03-28T22:42:55.227Z,81.31
2019-03-28T22:45:26.974Z,82.21
2019-03-28T22:48:10.566Z,81.95
2019-03-28T22:50:38.663Z,81.33
2019-03-28T22:53:14.737Z,82.38
2019-03-28T22:55:49.137Z,83.10
2019-03-28T22:58:24.819Z,82.91
2019-03-28T23:00:59.474Z,82.58
2019-03-28T23:03:34.361Z,82.16
2019-03-28T23:06:07.641Z,82.27
2019-03-28T23:08:40.232Z,82.02
2019-03-28T23:11:13.938Z,82.34
2019-03-28T23:13:46.492Z,82.44
2019-03-28T23:16:19.185Z,82.37
2019-03-28T23:18:52.598Z,82.16
2019-03-28T23:21:24.973Z,81.53
2019-03-28T23:23:58.269Z,81.91
2019-03-28T23:26:31.291Z,81.83
2019-03-28T23:29:04.269Z,81.75
2019-03-28T23:31:38.320Z,81.65
2019-03-28T23:34:10.944Z,81.70
2019-03-28T23:36:43.895Z,81.59
2019-03-28T23:39:16.561Z,81.37
2019-03-28T23:41:50.001Z,81.14
2019-03-28T23:44:23.311Z,81.84
2019-03-28T23:46:55.269Z,82.25
2019-03-28T23:49:28.636Z,82.48
2019-03-28T23:52:02.410Z,82.72
2019-03-28T23:54:35.645Z,82.73
2019-03-28T23:57:10.340Z,82.24
2019-03-28T23:59:42.842Z,82.26
